Time;durP1;ratioP1;P1;durP2;ratioP2;P2;SDS_P1;SDS_P2;PMS_P1;PMS_P2;Temp;Humidity;BMP_temperature;BMP_pressure;BME280_temperature;BME280_humidity;BME280_pressure;Samples;Min_cycle;Max_cycle;Signal;HPM_P1;HPM_P2
2022/01/01 00:02:05;;;;;;;95.35;86.07;;;10.90;99.90;;;;;;4928043;29;20687;-62
2022/01/01 00:04:54;;;;;;;44.05;39.30;;;10.90;99.90;;;;;;4923670;29;20235;-62
2022/01/01 00:07:22;;;;;;;35.15;31.55;;;10.90;99.90;;;;;;4934055;29;20231;-62
2022/01/01 00:09:50;;;;;;;29.35;25.67;;;10.90;99.90;;;;;;4926291;29;20630;-62
2022/01/01 00:12:18;;;;;;;30.67;27.48;;;10.90;99.90;;;;;;4921685;29;20977;-62
2022/01/01 00:14:48;;;;;;;32.70;27.75;;;10.90;99.90;;;;;;4930802;29;20234;-62
2022/01/01 00:17:16;;;;;;;36.85;33.35;;;10.90;99.90;;;;;;4934665;28;20219;-61
2022/01/01 00:19:43;;;;;;;90.65;82.05;;;10.90;99.90;;;;;;4926766;29;20720;-61
2022/01/01 00:22:11;;;;;;;47.35;42.75;;;10.90;99.90;;;;;;4925660;29;20310;-61
2022/01/01 00:24:39;;;;;;;36.22;32.45;;;10.80;99.90;;;;;;4931693;28;20285;-61
2022/01/01 00:27:07;;;;;;;39.50;35.20;;;10.80;99.90;;;;;;4939170;28;20351;-61
2022/01/01 00:29:35;;;;;;;33.65;30.10;;;10.80;99.90;;;;;;4927730;29;20299;-61
2022/01/01 00:32:05;;;;;;;33.42;30.08;;;10.80;99.90;;;;;;4924141;29;20307;-61
2022/01/01 00:34:35;;;;;;;32.17;28.13;;;10.80;99.90;;;;;;4932663;28;20223;-61
2022/01/01 00:37:05;;;;;;;33.42;29.48;;;10.80;99.90;;;;;;4931351;29;20315;-61
2022/01/01 00:39:32;;;;;;;30.05;27.05;;;10.80;99.90;;;;;;4928421;29;20311;-61
2022/01/01 00:42:00;;;;;;;30.10;27.02;;;10.90;99.90;;;;;;4928747;29;20215;-61
2022/01/01 00:44:30;;;;;;;30.00;25.88;;;10.90;99.90;;;;;;4925628;28;20755;-61
2022/01/01 00:46:58;;;;;;;32.13;27.25;;;10.90;99.90;;;;;;4931196;29;20284;-61
2022/01/01 00:49:28;;;;;;;28.98;25.80;;;10.80;99.90;;;;;;4929690;29;20287;-61
2022/01/01 00:51:56;;;;;;;33.35;28.23;;;10.80;99.90;;;;;;4928815;29;20763;-61
2022/01/01 00:54:24;;;;;;;29.65;25.92;;;10.80;99.90;;;;;;4923361;29;20712;-61
2022/01/01 00:56:52;;;;;;;33.05;27.27;;;10.80;99.90;;;;;;4930234;28;20247;-61
2022/01/01 00:59:21;;;;;;;28.35;24.50;;;10.80;99.90;;;;;;4927562;29;20784;-62
2022/01/01 01:01:49;;;;;;;26.50;23.75;;;10.80;99.90;;;;;;4928336;29;21018;-61
2022/01/01 01:04:17;;;;;;;27.02;23.27;;;10.90;99.90;;;;;;4921988;28;20231;-61
2022/01/01 01:06:46;;;;;;;23.92;21.30;;;10.80;99.90;;;;;;4926438;29;20696;-61
2022/01/01 01:09:14;;;;;;;24.05;19.83;;;10.80;99.90;;;;;;4928114;29;20341;-61
2022/01/01 01:11:45;;;;;;;25.20;22.55;;;10.80;99.90;;;;;;4928120;29;20286;-61
2022/01/01 01:14:20;;;;;;;26.67;24.05;;;10.80;99.90;;;;;;4923276;28;20310;-61
2022/01/01 01:16:50;;;;;;;24.60;22.02;;;10.80;99.90;;;;;;4938998;29;20669;-62
2022/01/01 01:19:18;;;;;;;24.40;21.85;;;10.80;99.90;;;;;;4926984;28;20238;-61
2022/01/01 01:21:50;;;;;;;24.17;21.70;;;10.80;99.90;;;;;;4923156;29;20227;-61
2022/01/01 01:24:19;;;;;;;25.38;22.75;;;10.70;99.90;;;;;;4919709;29;20727;-61
2022/01/01 01:26:50;;;;;;;22.40;19.35;;;10.70;99.90;;;;;;4930267;29;20252;-61
2022/01/01 01:29:19;;;;;;;22.27;19.98;;;10.70;99.90;;;;;;4927584;29;20287;-61
2022/01/01 01:31:47;;;;;;;21.58;19.35;;;10.70;99.90;;;;;;4929279;29;20294;-61
2022/01/01 01:34:15;;;;;;;22.17;19.77;;;10.80;99.90;;;;;;4927822;28;20311;-61
2022/01/01 01:36:43;;;;;;;25.17;21.50;;;10.80;99.90;;;;;;4930693;29;20619;-62
2022/01/01 01:39:12;;;;;;;22.20;19.92;;;10.80;99.90;;;;;;4945226;23;20318;-63
2022/01/01 01:41:43;;;;;;;20.88;18.85;;;10.90;99.90;;;;;;4934482;29;20625;-67
2022/01/01 01:44:25;;;;;;;20.55;18.35;;;10.90;99.90;;;;;;4918047;29;20733;-63
2022/01/01 01:46:53;;;;;;;21.85;19.45;;;11.00;99.90;;;;;;4943281;29;20634;-64
2022/01/01 01:49:21;;;;;;;17.33;15.45;;;11.00;99.90;;;;;;4929427;29;20223;-63
2022/01/01 01:51:49;;;;;;;22.33;19.90;;;11.20;99.90;;;;;;4926867;29;20209;-63
2022/01/01 01:54:19;;;;;;;18.45;16.65;;;12.00;99.90;;;;;;4921195;29;20243;-63
2022/01/01 01:56:48;;;;;;;17.27;15.52;;;12.10;99.90;;;;;;4928287;29;20657;-63
2022/01/01 01:59:17;;;;;;;15.50;13.90;;;12.30;99.90;;;;;;4925644;29;20792;-63
2022/01/01 02:01:45;;;;;;;13.90;12.13;;;12.40;99.90;;;;;;4924520;29;20284;-63
2022/01/01 02:04:13;;;;;;;13.40;12.10;;;13.00;99.90;;;;;;4928350;29;20208;-62
2022/01/01 02:06:42;;;;;;;12.77;11.13;;;13.20;99.90;;;;;;4929925;29;20228;-63
2022/01/01 02:09:10;;;;;;;16.23;10.27;;;13.10;99.90;;;;;;4923309;29;20314;-62
2022/01/01 02:11:40;;;;;;;11.48;10.02;;;12.80;99.90;;;;;;4929868;29;20192;-62
2022/01/01 02:14:18;;;;;;;11.40;10.02;;;12.70;99.90;;;;;;4930611;29;20291;-63
2022/01/01 02:17:08;;;;;;;12.75;10.65;;;12.60;99.90;;;;;;4934544;29;20220;-63
2022/01/01 02:19:51;;;;;;;14.30;11.10;;;12.40;99.90;;;;;;4928485;29;20255;-63
2022/01/01 02:22:20;;;;;;;;;;;12.30;99.90;;;;;;4933062;29;20214;-63
2022/01/01 02:24:48;;;;;;;;;;;12.20;99.90;;;;;;4953268;28;20084;-64
2022/01/01 02:27:17;;;;;;;12.05;10.77;;;12.30;99.90;;;;;;4952515;29;20149;-63
2022/01/01 02:29:45;;;;;;;13.07;11.63;;;12.30;99.90;;;;;;4943556;28;20717;-63
2022/01/01 02:32:16;;;;;;;11.82;10.63;;;12.30;99.90;;;;;;4946664;29;20211;-63
2022/01/01 02:34:44;;;;;;;12.70;10.50;;;12.30;99.90;;;;;;4952186;29;20299;-63
2022/01/01 02:37:12;;;;;;;13.35;11.95;;;12.30;99.90;;;;;;4952521;29;20223;-63
2022/01/01 02:39:41;;;;;;;12.68;11.48;;;12.20;99.90;;;;;;4952110;28;20271;-63
2022/01/01 02:42:12;;;;;;;12.55;11.05;;;12.10;99.90;;;;;;4952201;29;20899;-63
2022/01/01 02:44:42;;;;;;;;;;;12.10;99.90;;;;;;4952731;29;20098;-63
2022/01/01 02:47:10;;;;;;;;;;;12.10;99.90;;;;;;4949253;29;20069;-63
2022/01/01 02:49:38;;;;;;;16.30;11.82;;;12.10;99.90;;;;;;4929284;29;20220;-63
2022/01/01 02:52:06;;;;;;;13.23;10.98;;;12.20;99.90;;;;;;4933765;29;20310;-63
2022/01/01 02:54:34;;;;;;;13.68;10.60;;;12.00;99.90;;;;;;4936534;29;20235;-62
2022/01/01 02:57:03;;;;;;;14.18;11.68;;;11.80;99.90;;;;;;4954528;29;20305;-63
2022/01/01 02:59:31;;;;;;;11.77;10.57;;;11.60;99.90;;;;;;4955603;28;20744;-63
2022/01/01 03:01:59;;;;;;;14.20;12.80;;;11.50;99.90;;;;;;4941410;29;20259;-62
2022/01/01 03:04:27;;;;;;;14.18;11.80;;;11.50;99.90;;;;;;4937257;29;20255;-63
2022/01/01 03:06:57;;;;;;;15.90;12.10;;;11.50;99.90;;;;;;4937311;29;20216;-63
2022/01/01 03:09:33;;;;;;;12.60;11.30;;;11.70;99.90;;;;;;4933221;29;20296;-63
2022/01/01 03:12:01;;;;;;;15.90;13.02;;;11.70;99.90;;;;;;4937124;29;20233;-63
2022/01/01 03:14:30;;;;;;;13.18;11.77;;;11.80;99.90;;;;;;4930863;29;20746;-63
2022/01/01 03:16:58;;;;;;;12.70;11.40;;;12.00;99.90;;;;;;4931149;29;20236;-63
2022/01/01 03:19:26;;;;;;;13.10;11.63;;;11.90;99.90;;;;;;4936557;28;20328;-62
2022/01/01 03:21:54;;;;;;;13.88;12.13;;;11.90;99.90;;;;;;4944838;29;20310;-63
2022/01/01 03:24:22;;;;;;;12.52;11.23;;;12.00;99.90;;;;;;4955051;29;20674;-63
2022/01/01 03:26:51;;;;;;;12.85;11.55;;;11.90;99.90;;;;;;4955239;29;20200;-62
2022/01/01 03:29:18;;;;;;;12.68;11.38;;;11.70;99.90;;;;;;4955269;28;20775;-64
2022/01/01 03:31:47;;;;;;;11.70;9.93;;;11.70;99.90;;;;;;4955116;29;20266;-62
2022/01/01 03:34:17;;;;;;;11.07;9.60;;;11.50;99.90;;;;;;4954741;29;20239;-63
2022/01/01 03:36:45;;;;;;;10.55;9.30;;;11.30;99.90;;;;;;4955185;29;20301;-63
2022/01/01 03:39:13;;;;;;;10.27;9.27;;;11.10;99.90;;;;;;4954641;28;20322;-62
2022/01/01 03:41:41;;;;;;;12.65;10.07;;;11.10;99.90;;;;;;4955089;29;20243;-63
2022/01/01 03:44:08;;;;;;;9.10;8.23;;;11.20;99.90;;;;;;4954639;29;20298;-62
2022/01/01 03:46:36;;;;;;;9.00;8.15;;;11.30;99.90;;;;;;4955026;29;20676;-62
2022/01/01 03:49:05;;;;;;;9.18;8.15;;;11.30;99.90;;;;;;4934856;28;20596;-62
2022/01/01 03:51:33;;;;;;;8.85;8.00;;;11.30;99.90;;;;;;4949081;29;20238;-62
2022/01/01 03:54:01;;;;;;;9.70;8.80;;;11.20;99.90;;;;;;4938265;29;20222;-63
2022/01/01 03:56:29;;;;;;;10.50;8.18;;;11.20;99.90;;;;;;4946717;29;20204;-62
2022/01/01 03:58:57;;;;;;;9.63;8.75;;;11.10;99.90;;;;;;4936358;29;20295;-62
2022/01/01 04:01:25;;;;;;;10.25;9.07;;;11.00;99.90;;;;;;4936401;29;20211;-62
2022/01/01 04:03:53;;;;;;;10.50;9.55;;;10.90;99.90;;;;;;4935730;29;20227;-63
2022/01/01 04:06:22;;;;;;;11.60;10.40;;;10.90;99.90;;;;;;4942132;29;20640;-63
2022/01/01 04:08:50;;;;;;;12.95;10.63;;;10.90;99.90;;;;;;4954581;28;20227;-62
2022/01/01 04:11:18;;;;;;;13.23;11.43;;;10.80;99.90;;;;;;4954786;29;20649;-62
2022/01/01 04:13:46;;;;;;;13.73;10.95;;;10.80;99.90;;;;;;4954004;29;20242;-62
2022/01/01 04:16:14;;;;;;;12.55;11.13;;;10.80;99.90;;;;;;4942167;29;20208;-62
2022/01/01 04:18:42;;;;;;;11.18;9.98;;;10.80;99.90;;;;;;4944781;29;20275;-62
2022/01/01 04:21:11;;;;;;;11.40;10.32;;;10.80;99.90;;;;;;4930775;29;20260;-62
2022/01/01 04:23:41;;;;;;;12.45;11.13;;;10.90;99.90;;;;;;4935243;29;20243;-62
2022/01/01 04:26:10;;;;;;;12.27;11.10;;;11.00;99.90;;;;;;4936010;29;20236;-63
2022/01/01 04:28:40;;;;;;;13.23;10.65;;;11.10;99.90;;;;;;4935763;29;20226;-62
2022/01/01 04:31:07;;;;;;;12.13;10.93;;;11.30;99.90;;;;;;4935949;29;20291;-63
2022/01/01 04:33:36;;;;;;;12.40;11.23;;;11.30;99.90;;;;;;4935274;29;20204;-62
2022/01/01 04:36:04;;;;;;;11.68;10.48;;;11.50;99.90;;;;;;4935723;29;20200;-63
2022/01/01 04:38:37;;;;;;;10.80;9.80;;;11.60;99.90;;;;;;4935331;29;20320;-62
2022/01/01 04:41:09;;;;;;;10.07;8.90;;;11.70;99.90;;;;;;4935763;29;20251;-63
2022/01/01 04:43:37;;;;;;;10.00;9.10;;;11.90;99.90;;;;;;4935174;29;20681;-63
2022/01/01 04:46:05;;;;;;;9.63;8.68;;;11.90;99.90;;;;;;4935459;29;20572;-62
2022/01/01 04:48:36;;;;;;;9.35;8.35;;;12.00;99.90;;;;;;4937123;28;20546;-63
2022/01/01 04:51:06;;;;;;;10.55;9.10;;;12.00;99.90;;;;;;4933120;29;20205;-64
2022/01/01 04:53:34;;;;;;;9.02;7.50;;;12.00;99.90;;;;;;4953428;29;20310;-63
2022/01/01 04:56:06;;;;;;;9.80;8.90;;;12.10;99.90;;;;;;4940942;29;20208;-63
2022/01/01 04:58:36;;;;;;;8.70;7.80;;;12.20;99.90;;;;;;4935041;29;20232;-63
2022/01/01 05:01:04;;;;;;;9.15;7.97;;;12.20;99.90;;;;;;4928706;29;20235;-63
2022/01/01 05:03:32;;;;;;;8.80;7.80;;;12.20;99.90;;;;;;4928853;29;20255;-62
2022/01/01 05:06:01;;;;;;;7.88;7.13;;;12.20;99.90;;;;;;4929089;29;20672;-63
2022/01/01 05:08:28;;;;;;;10.25;8.30;;;12.30;99.90;;;;;;4929113;29;20200;-62
2022/01/01 05:10:56;;;;;;;8.07;7.25;;;12.30;99.90;;;;;;4934928;29;20220;-62
2022/01/01 05:13:24;;;;;;;8.90;8.10;;;12.30;99.90;;;;;;4934699;29;20246;-63
2022/01/01 05:15:55;;;;;;;9.15;7.43;;;12.30;99.90;;;;;;4934532;29;20235;-63
2022/01/01 05:18:23;;;;;;;8.13;7.18;;;12.40;99.90;;;;;;4929962;29;20243;-63
2022/01/01 05:20:52;;;;;;;7.57;6.88;;;12.40;99.90;;;;;;4935913;29;20203;-63
2022/01/01 05:23:19;;;;;;;6.88;6.07;;;12.40;99.90;;;;;;4939585;29;20239;-63
2022/01/01 05:25:47;;;;;;;7.55;6.75;;;12.40;99.90;;;;;;4934725;29;20294;-63
2022/01/01 05:28:15;;;;;;;9.82;6.90;;;12.50;99.90;;;;;;4934691;29;20235;-62
2022/01/01 05:30:43;;;;;;;8.25;7.45;;;12.50;99.90;;;;;;4934788;29;20212;-63
2022/01/01 05:33:12;;;;;;;8.10;7.28;;;12.50;99.90;;;;;;4934614;29;20687;-64
2022/01/01 05:35:40;;;;;;;9.48;8.57;;;12.40;99.90;;;;;;4934660;29;20239;-64
2022/01/01 05:38:08;;;;;;;9.10;8.23;;;12.40;99.90;;;;;;4934558;29;20246;-64
2022/01/01 05:40:52;;;;;;;10.40;8.45;;;12.30;99.90;;;;;;4934606;29;20195;-64
2022/01/01 05:43:20;;;;;;;13.32;8.38;;;12.30;99.90;;;;;;4934321;29;20736;-64
2022/01/01 05:45:47;;;;;;;9.05;8.13;;;12.30;99.90;;;;;;4934659;29;20290;-64
2022/01/01 05:48:17;;;;;;;10.80;8.27;;;12.30;99.90;;;;;;4936237;28;20207;-63
2022/01/01 05:50:45;;;;;;;10.70;8.98;;;12.30;99.90;;;;;;4935235;29;20199;-63
2022/01/01 05:53:13;;;;;;;10.65;9.60;;;12.30;99.90;;;;;;4952592;29;20249;-64
2022/01/01 05:55:41;;;;;;;9.70;8.68;;;12.20;99.90;;;;;;4942653;29;20295;-63
2022/01/01 05:58:09;;;;;;;9.50;8.30;;;12.10;99.90;;;;;;4934413;29;20250;-64
2022/01/01 06:00:37;;;;;;;10.52;9.23;;;12.10;99.90;;;;;;4934271;29;20259;-64
2022/01/01 06:03:05;;;;;;;12.15;10.43;;;12.10;99.90;;;;;;4943362;29;20207;-63
2022/01/01 06:05:35;;;;;;;10.20;9.15;;;12.00;99.90;;;;;;4952500;29;20238;-63
2022/01/01 06:08:03;;;;;;;11.52;9.68;;;12.00;99.90;;;;;;4952723;28;20254;-63
2022/01/01 06:10:31;;;;;;;11.70;10.07;;;12.00;99.90;;;;;;4952652;28;20269;-63
2022/01/01 06:12:59;;;;;;;10.77;9.40;;;12.10;99.90;;;;;;4952389;29;20298;-62
2022/01/01 06:15:26;;;;;;;11.52;9.73;;;12.10;99.90;;;;;;4952299;29;20241;-63
2022/01/01 06:17:54;;;;;;;9.55;8.38;;;12.10;99.90;;;;;;4941281;29;20242;-63
2022/01/01 06:20:22;;;;;;;10.80;8.15;;;12.10;99.90;;;;;;4936742;28;20318;-64
2022/01/01 06:23:05;;;;;;;8.60;7.70;;;12.10;99.90;;;;;;4952851;29;20242;-63
2022/01/01 06:25:33;;;;;;;9.00;8.20;;;12.20;99.90;;;;;;4952320;29;20671;-63
2022/01/01 06:28:01;;;;;;;9.30;7.40;;;12.20;99.90;;;;;;4940684;29;20227;-64
2022/01/01 06:30:33;;;;;;;8.98;7.97;;;12.20;99.90;;;;;;4943267;28;20234;-64
2022/01/01 06:33:03;;;;;;;7.35;6.65;;;12.30;99.90;;;;;;4937950;29;20210;-63
2022/01/01 06:35:30;;;;;;;9.02;8.20;;;12.10;99.90;;;;;;4937779;29;20255;-63
2022/01/01 06:37:58;;;;;;;9.75;7.85;;;12.00;99.90;;;;;;4937748;29;20267;-62
2022/01/01 06:40:28;;;;;;;8.65;7.78;;;11.90;99.90;;;;;;4937526;29;20270;-63
2022/01/01 06:42:55;;;;;;;9.60;8.60;;;11.90;99.90;;;;;;4937569;29;20314;-63
2022/01/01 06:45:23;;;;;;;9.93;8.18;;;11.90;99.90;;;;;;4937579;29;20235;-63
2022/01/01 06:47:51;;;;;;;9.27;8.32;;;11.90;99.90;;;;;;4938956;29;20677;-63
2022/01/01 06:50:19;;;;;;;10.38;9.35;;;11.90;99.90;;;;;;4935410;28;20252;-63
2022/01/01 06:52:47;;;;;;;10.15;9.20;;;11.90;99.90;;;;;;4955825;29;20204;-63
2022/01/01 06:55:15;;;;;;;9.02;8.23;;;11.90;99.90;;;;;;4949015;29;20263;-63
2022/01/01 06:57:45;;;;;;;9.55;8.60;;;11.90;99.90;;;;;;4937570;29;20239;-63
2022/01/01 07:00:15;;;;;;;9.55;8.40;;;11.90;99.90;;;;;;4938637;29;20259;-63
2022/01/01 07:02:46;;;;;;;10.38;9.27;;;11.80;99.90;;;;;;4955632;29;20307;-63
2022/01/01 07:05:16;;;;;;;10.90;9.40;;;11.80;99.90;;;;;;4955863;29;20264;-63
2022/01/01 07:07:44;;;;;;;12.60;11.38;;;11.80;99.90;;;;;;4955933;29;20230;-63
2022/01/01 07:10:13;;;;;;;11.48;10.38;;;11.80;99.90;;;;;;4952384;28;20279;-63
2022/01/01 07:12:41;;;;;;;11.70;9.85;;;11.90;99.90;;;;;;4926754;29;20223;-63
2022/01/01 07:15:11;;;;;;;12.20;10.98;;;11.80;99.90;;;;;;4923553;29;20725;-64
2022/01/01 07:17:39;;;;;;;12.23;10.90;;;11.80;99.90;;;;;;4926043;29;21126;-63
2022/01/01 07:20:08;;;;;;;13.88;11.82;;;11.70;99.90;;;;;;4931858;29;20244;-63
2022/01/01 07:22:40;;;;;;;13.73;11.90;;;11.70;99.90;;;;;;4927259;29;20239;-63
2022/01/01 07:25:09;;;;;;;15.88;14.35;;;11.80;99.90;;;;;;4921949;29;20413;-63
2022/01/01 07:27:37;;;;;;;19.13;13.68;;;11.70;99.90;;;;;;4929510;29;20207;-63
2022/01/01 07:30:06;;;;;;;16.95;12.98;;;11.70;99.90;;;;;;4950189;28;20306;-63
2022/01/01 07:32:43;;;;;;;16.98;13.50;;;11.80;99.90;;;;;;4941102;29;20664;-63
2022/01/01 07:35:13;;;;;;;16.23;14.57;;;11.80;99.90;;;;;;4923390;29;20218;-63
2022/01/01 07:37:41;;;;;;;17.15;14.30;;;11.70;99.90;;;;;;4928382;29;20807;-62
2022/01/01 07:40:12;;;;;;;18.60;15.00;;;11.70;99.90;;;;;;4959866;23;21118;-71
2022/01/01 07:42:41;;;;;;;17.65;14.48;;;11.70;99.90;;;;;;4956090;28;20821;-70
2022/01/01 07:45:10;;;;;;;16.30;14.60;;;11.80;99.90;;;;;;4948929;28;20303;-68
2022/01/01 07:47:39;;;;;;;19.77;15.73;;;11.70;99.90;;;;;;4951998;28;20634;-67
2022/01/01 07:50:10;;;;;;;19.45;17.40;;;11.60;99.90;;;;;;4930035;28;20228;-68
2022/01/01 07:52:38;;;;;;;17.77;15.75;;;11.60;99.90;;;;;;4933614;29;20264;-68
2022/01/01 07:55:07;;;;;;;19.77;16.35;;;11.60;99.90;;;;;;4925112;29;20287;-69
2022/01/01 07:57:35;;;;;;;17.42;15.60;;;11.70;99.90;;;;;;4930302;29;20197;-69
2022/01/01 08:00:07;;;;;;;18.42;15.55;;;11.80;99.90;;;;;;4949875;28;20286;-69
2022/01/01 08:02:39;;;;;;;21.40;16.30;;;11.80;99.90;;;;;;4933966;28;20235;-69
2022/01/01 08:05:10;;;;;;;19.85;16.98;;;11.80;99.90;;;;;;4932055;29;20218;-69
2022/01/01 08:07:39;;;;;;;18.35;16.45;;;11.80;99.90;;;;;;4922982;29;20666;-71
2022/01/01 08:10:27;;;;;;;17.33;15.32;;;11.80;99.90;;;;;;4933657;29;20224;-69
2022/01/01 08:12:55;;;;;;;19.77;16.17;;;11.80;99.90;;;;;;4923119;29;20303;-69
2022/01/01 08:15:23;;;;;;;18.83;16.92;;;11.90;99.90;;;;;;4916295;29;20236;-69
2022/01/01 08:17:50;;;;;;;21.30;16.55;;;12.00;99.90;;;;;;4925396;29;20705;-70
2022/01/01 08:20:20;;;;;;;17.63;15.75;;;12.00;99.90;;;;;;4926609;29;20224;-72
2022/01/01 08:22:48;;;;;;;20.35;17.20;;;12.00;99.90;;;;;;4919384;29;20235;-69
2022/01/01 08:25:16;;;;;;;22.65;15.68;;;12.10;99.90;;;;;;4925735;29;20256;-70
2022/01/01 08:27:44;;;;;;;21.40;16.30;;;12.10;99.90;;;;;;4934596;29;20242;-69
2022/01/01 08:30:14;;;;;;;18.75;16.75;;;12.10;99.90;;;;;;4949162;28;20227;-70
2022/01/01 08:32:43;;;;;;;19.90;15.20;;;12.10;99.90;;;;;;4935436;29;20250;-70
2022/01/01 08:35:11;;;;;;;18.02;16.13;;;12.00;99.90;;;;;;4919268;29;20894;-69
2022/01/01 08:37:41;;;;;;;17.75;15.82;;;12.00;99.90;;;;;;4938331;29;20638;-69
2022/01/01 08:40:09;;;;;;;;;;;12.00;99.90;;;;;;4929951;28;20251;-71
2022/01/01 08:42:37;;;;;;;;;;;11.80;99.90;;;;;;4939209;29;20087;-71
2022/01/01 08:45:05;;;;;;;;;;;11.80;99.90;;;;;;4932476;29;20059;-70
2022/01/01 08:47:33;;;;;;;;;;;11.70;99.90;;;;;;4936296;29;19968;-71
2022/01/01 08:50:01;;;;;;;;;;;11.40;99.90;;;;;;4927087;28;20080;-70
2022/01/01 08:52:29;;;;;;;;;;;11.40;99.90;;;;;;4937605;28;20542;-69
2022/01/01 08:54:59;;;;;;;;;;;11.20;99.90;;;;;;4926376;29;20080;-69
2022/01/01 08:57:27;;;;;;;;;;;11.10;99.90;;;;;;4925852;29;20416;-70
2022/01/01 08:59:55;;;;;;;;;;;11.00;99.90;;;;;;4931776;29;20084;-71
2022/01/01 09:02:22;;;;;;;;;;;11.00;99.90;;;;;;4924818;29;19996;-69
2022/01/01 09:04:50;;;;;;;;;;;11.00;99.90;;;;;;4930754;29;20055;-71
2022/01/01 09:07:18;;;;;;;;;;;10.90;99.90;;;;;;4926690;29;20051;-70
2022/01/01 09:09:46;;;;;;;;;;;10.90;99.90;;;;;;4941402;29;20388;-71
2022/01/01 09:12:16;;;;;;;;;;;11.00;99.90;;;;;;4927597;29;20428;-70
2022/01/01 09:14:43;;;;;;;;;;;11.00;99.90;;;;;;4928198;29;19999;-70
2022/01/01 09:17:16;;;;;;;;;;;11.20;99.90;;;;;;4926453;29;20016;-70
2022/01/01 09:19:44;;;;;;;;;;;11.30;99.90;;;;;;4930475;28;19969;-71
2022/01/01 09:22:11;;;;;;;;;;;11.30;99.90;;;;;;4925419;29;19969;-71
2022/01/01 09:24:39;;;;;;;;;;;11.30;99.90;;;;;;4919868;29;20052;-70
2022/01/01 09:27:07;;;;;;;;;;;11.30;99.90;;;;;;4929946;29;20593;-70
2022/01/01 09:29:36;;;;;;;;;;;11.30;99.90;;;;;;4939504;28;20066;-70
2022/01/01 09:32:04;;;;;;;;;;;11.20;99.90;;;;;;4944633;29;19996;-70
2022/01/01 09:34:32;;;;;;;;;;;11.10;99.90;;;;;;4930172;29;20449;-69
2022/01/01 09:37:00;;;;;;;;;;;11.20;99.90;;;;;;4931164;29;20071;-70
2022/01/01 09:39:28;;;;;;;;;;;11.20;99.90;;;;;;4936878;28;20018;-71
2022/01/01 09:41:56;;;;;;;;;;;11.10;99.90;;;;;;4941833;29;20549;-70
2022/01/01 09:44:24;;;;;;;;;;;11.00;99.90;;;;;;4927462;29;20060;-70
2022/01/01 09:46:54;;;;;;;;;;;11.10;99.90;;;;;;4918658;29;20345;-70
2022/01/01 09:49:21;;;;;;;;;;;11.10;99.90;;;;;;4931965;29;19976;-70
2022/01/01 09:51:50;;;;;;;;;;;11.00;99.90;;;;;;4927619;29;19968;-70
2022/01/01 09:54:18;;;;;;;;;;;11.10;99.90;;;;;;4928428;29;20067;-70
2022/01/01 09:56:45;;;;;;;;;;;11.10;99.90;;;;;;4915438;29;20499;-70
2022/01/01 09:59:14;;;;;;;;;;;11.20;99.90;;;;;;4944296;28;20381;-71
2022/01/01 10:01:43;;;;;;;;;;;11.30;99.90;;;;;;4940189;29;20039;-71
2022/01/01 10:04:13;;;;;;;;;;;11.40;99.90;;;;;;4929609;29;19996;-70
2022/01/01 10:06:41;;;;;;;;;;;11.50;99.90;;;;;;4924703;29;20075;-71
2022/01/01 10:09:09;;;;;;;;;;;11.60;99.90;;;;;;4933809;29;19968;-71
2022/01/01 10:11:38;;;;;;;;;;;11.70;99.90;;;;;;4932889;29;19999;-70
2022/01/01 10:14:06;;;;;;;;;;;11.70;99.90;;;;;;4932447;29;20004;-72
2022/01/01 10:16:38;;;;;;;;;;;11.60;99.90;;;;;;4927649;29;20063;-72
2022/01/01 10:19:06;;;;;;;;;;;11.60;99.90;;;;;;4921892;28;19973;-72
2022/01/01 10:21:40;;;;;;;;;;;11.50;99.90;;;;;;4935669;29;20000;-71
2022/01/01 10:24:12;;;;;;;;;;;11.60;99.90;;;;;;4917374;29;20001;-72
2022/01/01 10:29:27;;;;;;;;;;;11.80;99.90;;;;;;4930549;28;20000;-70
2022/01/01 10:31:56;;;;;;;;;;;11.70;99.90;;;;;;4933241;29;20025;-68
2022/01/01 10:34:26;;;;;;;;;;;11.80;99.90;;;;;;4927077;29;20008;-70
2022/01/01 10:36:56;;;;;;;;;;;11.70;99.90;;;;;;4921438;29;20552;-70
2022/01/01 10:39:24;;;;;;;;;;;11.70;99.90;;;;;;4937633;28;20406;-69
2022/01/01 10:41:53;;;;;;;;;;;11.70;99.90;;;;;;4940423;29;20100;-70
2022/01/01 10:44:27;;;;;;;;;;;11.80;99.90;;;;;;4928637;29;20071;-69
2022/01/01 10:46:55;;;;;;;;;;;11.80;99.90;;;;;;4917782;29;19964;-69
2022/01/01 10:49:32;;;;;;;;;;;11.90;99.90;;;;;;4932555;28;20420;-70
2022/01/01 10:52:13;;;;;;;;;;;11.90;99.90;;;;;;4920998;29;20411;-70
2022/01/01 10:54:47;;;;;;;;;;;11.90;99.90;;;;;;4930755;29;20071;-69
2022/01/01 10:57:15;;;;;;;;;;;11.90;99.90;;;;;;4930381;29;19965;-70
2022/01/01 10:59:43;;;;;;;;;;;11.90;99.90;;;;;;4933068;29;20549;-69
2022/01/01 11:02:11;;;;;;;;;;;12.00;99.90;;;;;;4925742;29;20075;-70
2022/01/01 11:04:39;;;;;;;;;;;11.90;99.90;;;;;;4931445;29;20080;-69
2022/01/01 11:07:07;;;;;;;;;;;11.90;99.90;;;;;;4932691;29;20087;-70
2022/01/01 11:09:36;;;;;;;;;;;11.90;99.90;;;;;;4928810;28;20087;-70
2022/01/01 11:12:05;;;;;;;;;;;11.80;99.90;;;;;;4928795;29;20031;-69
2022/01/01 11:14:33;;;;;;;;;;;11.80;99.90;;;;;;4922200;29;20087;-71
2022/01/01 11:17:02;;;;;;;;;;;11.80;99.90;;;;;;4937214;29;20734;-70
2022/01/01 11:19:29;;;;;;;;;;;11.80;99.90;;;;;;4928705;28;20008;-70
2022/01/01 11:21:57;;;;;;;;;;;11.80;99.90;;;;;;4939433;29;20004;-72
2022/01/01 11:24:25;;;;;;;;;;;11.80;99.90;;;;;;4927721;29;20829;-72
2022/01/01 11:26:55;;;;;;;;;;;11.80;99.90;;;;;;4931647;29;19969;-72
2022/01/01 11:29:23;;;;;;;;;;;11.70;99.90;;;;;;4933807;29;20059;-72
2022/01/01 11:31:53;;;;;;;;;;;11.70;99.90;;;;;;4930178;29;20009;-72
2022/01/01 11:34:21;;;;;;;;;;;11.60;99.90;;;;;;4933300;29;19975;-71
2022/01/01 11:36:49;;;;;;;;;;;11.60;99.90;;;;;;4925222;29;19976;-72
2022/01/01 11:39:22;;;;;;;;;;;11.80;99.90;;;;;;4938893;28;19979;-72
2022/01/01 11:41:49;;;;;;;;;;;11.70;99.90;;;;;;4944005;29;20092;-71
2022/01/01 11:44:29;;;;;;;;;;;11.80;99.90;;;;;;4935456;29;20033;-71
2022/01/01 11:46:58;;;;;;;;;;;11.80;99.90;;;;;;4928600;29;19982;-72
2022/01/01 11:49:27;;;;;;;;;;;11.80;99.90;;;;;;4931843;28;20409;-72
2022/01/01 11:52:34;;;;;;;;;;;11.80;99.90;;;;;;4924649;29;19976;-72
2022/01/01 11:55:03;;;;;;;;;;;11.80;99.90;;;;;;4929422;29;20024;-72
2022/01/01 11:57:32;;;;;;;;;;;11.80;99.90;;;;;;4933790;29;20477;-71
2022/01/01 12:00:08;;;;;;;;;;;11.70;99.90;;;;;;4936020;29;20055;-70
2022/01/01 12:02:37;;;;;;;;;;;11.80;99.90;;;;;;4938748;29;20000;-70
2022/01/01 12:05:10;;;;;;;;;;;11.70;99.90;;;;;;4925757;29;19968;-69
2022/01/01 12:07:52;;;;;;;;;;;11.80;99.90;;;;;;4931062;29;20051;-70
2022/01/01 12:10:21;;;;;;;;;;;11.70;99.90;;;;;;4935920;29;20492;-69
2022/01/01 12:12:50;;;;;;;;;;;11.50;99.90;;;;;;4932796;29;20083;-72
2022/01/01 12:15:26;;;;;;;;;;;11.50;99.90;;;;;;4928075;29;19973;-68
2022/01/01 12:17:56;;;;;;;;;;;11.50;99.90;;;;;;4934644;29;20083;-70
2022/01/01 12:20:25;;;;;;;;;;;11.50;99.90;;;;;;4931811;28;20011;-69
2022/01/01 12:22:53;;;;;;;;;;;11.50;99.90;;;;;;4927360;29;20060;-69
2022/01/01 12:25:25;;;;;;;;;;;11.50;99.90;;;;;;4933182;28;20104;-70
2022/01/01 12:27:53;;;;;;;;;;;11.60;99.90;;;;;;4922718;29;19968;-72
2022/01/01 12:30:33;;;;;;;;;;;11.60;99.90;;;;;;4924996;29;20008;-69
2022/01/01 12:33:01;;;;;;;;;;;11.70;99.90;;;;;;4925726;29;20018;-71
2022/01/01 12:35:38;;;;;;;;;;;11.70;99.90;;;;;;4935105;29;19975;-67
2022/01/01 12:38:06;;;;;;;;;;;11.70;99.90;;;;;;4929549;29;20477;-70
2022/01/01 12:40:34;;;;;;;;;;;11.70;99.90;;;;;;4931077;29;20090;-70
2022/01/01 12:43:08;;;;;;;;;;;11.70;99.90;;;;;;4927393;29;19980;-70
2022/01/01 12:45:38;;;;;;;;;;;11.80;99.90;;;;;;4932130;29;20066;-70
2022/01/01 12:48:06;;;;;;;;;;;11.80;99.90;;;;;;4935152;29;20016;-71
2022/01/01 12:50:34;;;;;;;;;;;12.00;99.90;;;;;;4931297;29;20408;-70
2022/01/01 12:53:03;;;;;;;;;;;12.10;99.90;;;;;;4931102;29;19969;-70
2022/01/01 12:55:30;;;;;;;;;;;12.20;99.90;;;;;;4926655;29;20051;-69
2022/01/01 12:58:08;;;;;;;;;;;12.30;99.90;;;;;;4921936;29;20616;-69
2022/01/01 13:00:38;;;;;;;;;;;12.30;99.90;;;;;;4941644;29;20015;-71
2022/01/01 13:03:07;;;;;;;;;;;12.30;99.90;;;;;;4930782;29;19969;-70
2022/01/01 13:05:35;;;;;;;;;;;12.40;99.90;;;;;;4934255;29;20420;-70
2022/01/01 13:08:04;;;;;;;;;;;12.30;99.90;;;;;;4924414;29;20083;-69
2022/01/01 13:10:33;;;;;;;;;;;12.20;99.90;;;;;;4938254;29;19969;-70
2022/01/01 13:13:05;;;;;;;;;;;12.20;99.90;;;;;;4920110;29;20074;-71
2022/01/01 13:15:37;;;;;;;;;;;12.30;99.90;;;;;;4928511;29;20018;-70
2022/01/01 13:18:04;;;;;;;;;;;12.40;99.90;;;;;;4923234;29;20004;-70
2022/01/01 13:20:34;;;;;;;;;;;12.30;99.90;;;;;;4928290;28;20489;-70
2022/01/01 13:23:05;;;;;;;;;;;12.30;99.90;;;;;;4930431;29;20010;-69